Phillipsburg, Ohio
Current Conditions -  °F | °C
As of 5:56 PM on Friday 31 Oct 2014 (Local Time) from KDAY Reporting Station
Light Rain Light Rain  
Wind Chill: 36°   Ceiling: 5000
Heat Index: 41°   Visibility: 10mi
Dew Point: 38°   Wind: 8mph
Humidity: 89%   Direction: 320°NW
Pressure: 29.92"   Gusts: NA
Location:  39.9°N, 84.4°W
Report Text: KDAY 312156Z 32007KT 10SM -RA FEW023 SCT030 OVC050 05/03 A2992 RMK AO2 CIG 042 RWY 6L SLP137 P0000 T00500033
Loading
Personal Weather Stations






























Interactive Weather Map
Tropical Storm Tracking
New forecast layout! Learn more

10-Day Weather Forecast

Advertisements
Track Severe Weather on mobile